PWSweather.com
Personal Weather Stations
Station Observations
IMAZOWIE6
WarszawaPL

WarszawaPL

Lat: 52.27957, Lon: 21.05489

Elevation: 100

Station Type: WS1080

http://stacjapogody.waw.pl/

High Low Average
Temperature 41.0°F5.0°C 31.6°F-0.2°C 36.3°F2.4°C
Dew Point -168.7°F-111.5°C -169.6°F-112.0°C -169.2°F-111.8°C
Winds Calm Calm Calm Calm Calm NCalm N
Wind Gusts 0.6 mph1.0 kmh -- --
Humidity - - -
Pressure 29.88 in1011.9 mb 29.37 in994.6 mb -
Precipitation 0.00 in0.0 mm - -
Hour Temp Dew Point Humidity Winds Wind Gusts Pressure Precip Precip Rate Daily Precip Total
12:03 AM 37.8°F3.2°C -169.0°F-111.7°C - Calm Calm -- 29.37 in994.6 mb 0.01 in0.3 mm 0.25 in6.4 mm 0.01 in0.3 mm
12:18 AM 37.8°F3.2°C -169.0°F-111.7°C - Calm Calm 0.6 mph1.0 kmh 29.38 in994.9 mb 0.00 in0.0 mm 0.00 in0.0 mm 0.01 in0.3 mm
12:32 AM 37.8°F3.2°C -169.0°F-111.7°C - Calm Calm 0.6 mph1.0 kmh 29.38 in994.9 mb 0.00 in0.0 mm 0.00 in0.0 mm 0.01 in0.3 mm
12:48 AM 37.9°F3.3°C -169.0°F-111.7°C - Calm Calm -- 29.39 in995.3 mb 0.00 in0.0 mm 0.00 in0.0 mm 0.01 in0.3 mm
01:03 AM 37.8°F3.2°C -169.0°F-111.7°C - Calm Calm -- 29.39 in995.3 mb 0.00 in0.0 mm 0.00 in0.0 mm 0.01 in0.3 mm
01:18 AM 37.9°F3.3°C -169.0°F-111.7°C - Calm Calm -- 29.39 in995.3 mb 0.00 in0.0 mm 0.00 in0.0 mm 0.01 in0.3 mm
01:33 AM 37.8°F3.2°C -169.0°F-111.7°C - Calm Calm -- 29.39 in995.3 mb 0.00 in0.0 mm 0.00 in0.0 mm 0.01 in0.3 mm
01:48 AM 37.6°F3.1°C -169.0°F-111.7°C - Calm Calm -- 29.39 in995.3 mb 0.00 in0.0 mm 0.00 in0.0 mm 0.01 in0.3 mm
02:03 AM 37.6°F3.1°C -169.0°F-111.7°C - Calm Calm -- 29.39 in995.3 mb 0.00 in0.0 mm 0.00 in0.0 mm 0.01 in0.3 mm
02:15 AM 37.6°F3.1°C -169.0°F-111.7°C - Calm Calm -- 29.39 in995.3 mb 0.00 in0.0 mm 0.00 in0.0 mm 0.01 in0.3 mm
02:33 AM 37.6°F3.1°C -169.0°F-111.7°C - Calm Calm -- 29.39 in995.3 mb 0.00 in0.0 mm 0.00 in0.0 mm 0.01 in0.3 mm
02:47 AM 37.6°F3.1°C -169.0°F-111.7°C - Calm Calm -- 29.39 in995.3 mb 0.00 in0.0 mm 0.00 in0.0 mm 0.01 in0.3 mm
03:03 AM 37.6°F3.1°C -169.0°F-111.7°C - Calm Calm -- 29.39 in995.3 mb 0.00 in0.0 mm 0.00 in0.0 mm 0.01 in0.3 mm
03:18 AM 36.9°F2.7°C -169.1°F-111.7°C - Calm Calm -- 29.43 in996.6 mb 0.00 in0.0 mm 0.00 in0.0 mm 0.01 in0.3 mm
03:33 AM 36.3°F2.4°C -169.2°F-111.8°C - Calm Calm -- 29.43 in996.6 mb 0.01 in0.3 mm 0.05 in1.3 mm 0.02 in0.5 mm
03:48 AM 36.1°F2.3°C -169.2°F-111.8°C - Calm Calm -- 29.44 in997.0 mb 0.01 in0.3 mm 0.00 in0.0 mm 0.02 in0.5 mm
04:03 AM 36.1°F2.3°C -169.2°F-111.8°C - Calm Calm -- 29.44 in997.0 mb 0.01 in0.3 mm 0.00 in0.0 mm 0.02 in0.5 mm
04:18 AM 35.8°F2.1°C -169.2°F-111.8°C - Calm Calm -- 29.46 in997.6 mb 0.00 in0.0 mm 0.00 in0.0 mm 0.02 in0.5 mm
04:33 AM 35.4°F1.9°C -169.3°F-111.8°C - Calm Calm 0.6 mph1.0 kmh 29.47 in998.0 mb 0.00 in0.0 mm 0.00 in0.0 mm 0.02 in0.5 mm
04:48 AM 35.2°F1.8°C -169.3°F-111.8°C - Calm Calm 0.6 mph1.0 kmh 29.47 in998.0 mb 0.00 in0.0 mm 0.00 in0.0 mm 0.02 in0.5 mm
05:03 AM 35.2°F1.8°C -169.3°F-111.8°C - Calm Calm -- 29.47 in998.0 mb 0.00 in0.0 mm 0.00 in0.0 mm 0.02 in0.5 mm
05:18 AM 35.2°F1.8°C -169.3°F-111.8°C - Calm Calm -- 29.48 in998.3 mb 0.00 in0.0 mm 0.00 in0.0 mm 0.02 in0.5 mm
05:33 AM 35.4°F1.9°C -169.3°F-111.8°C - Calm Calm -- 29.49 in998.6 mb 0.00 in0.0 mm 0.00 in0.0 mm 0.02 in0.5 mm
05:48 AM 35.2°F1.8°C -169.3°F-111.8°C - Calm Calm -- 29.49 in998.6 mb 0.00 in0.0 mm 0.00 in0.0 mm 0.02 in0.5 mm
06:03 AM 35.2°F1.8°C -169.3°F-111.8°C - Calm Calm -- 29.49 in998.6 mb 0.00 in0.0 mm 0.00 in0.0 mm 0.02 in0.5 mm
06:18 AM 34.9°F1.6°C -169.3°F-111.8°C - Calm Calm -- 29.50 in999.0 mb 0.00 in0.0 mm 0.00 in0.0 mm 0.02 in0.5 mm
06:33 AM 34.7°F1.5°C -169.3°F-111.8°C - Calm Calm -- 29.50 in999.0 mb 0.00 in0.0 mm 0.00 in0.0 mm 0.02 in0.5 mm
06:48 AM 35.1°F1.7°C -169.3°F-111.8°C - Calm Calm -- 29.51 in999.3 mb 0.00 in0.0 mm 0.00 in0.0 mm 0.02 in0.5 mm
07:03 AM 34.9°F1.6°C -169.3°F-111.8°C - Calm Calm 0.6 mph1.0 kmh 29.52 in999.7 mb 0.00 in0.0 mm 0.00 in0.0 mm 0.02 in0.5 mm
07:18 AM 35.2°F1.8°C -169.3°F-111.8°C - Calm Calm -- 29.52 in999.7 mb 0.00 in0.0 mm 0.00 in0.0 mm 0.02 in0.5 mm
07:33 AM 35.2°F1.8°C -169.3°F-111.8°C - Calm Calm -- 29.52 in999.7 mb 0.00 in0.0 mm 0.00 in0.0 mm 0.02 in0.5 mm
07:48 AM 35.4°F1.9°C -169.3°F-111.8°C - Calm Calm -- 29.52 in999.7 mb 0.00 in0.0 mm 0.00 in0.0 mm 0.02 in0.5 mm
08:00 AM 35.4°F1.9°C -169.3°F-111.8°C - Calm Calm -- 29.52 in999.7 mb 0.00 in0.0 mm 0.00 in0.0 mm 0.02 in0.5 mm
08:18 AM 36.3°F2.4°C -169.2°F-111.8°C - Calm Calm -- 29.53 in1000.0 mb 0.00 in0.0 mm 0.00 in0.0 mm 0.02 in0.5 mm
08:33 AM 36.0°F2.2°C -169.2°F-111.8°C - Calm Calm -- 29.54 in1000.3 mb 0.00 in0.0 mm 0.00 in0.0 mm 0.02 in0.5 mm
08:48 AM 36.1°F2.3°C -169.2°F-111.8°C - Calm Calm 0.6 mph1.0 kmh 29.55 in1000.7 mb 0.00 in0.0 mm 0.00 in0.0 mm 0.02 in0.5 mm
09:02 AM 36.1°F2.3°C -169.2°F-111.8°C - Calm Calm 0.6 mph1.0 kmh 29.55 in1000.7 mb 0.00 in0.0 mm 0.00 in0.0 mm 0.02 in0.5 mm
09:18 AM 41.0°F5.0°C -168.7°F-111.5°C - Calm Calm 0.6 mph1.0 kmh 29.56 in1001.0 mb 0.00 in0.0 mm 0.00 in0.0 mm 0.02 in0.5 mm
09:31 AM 41.0°F5.0°C -168.7°F-111.5°C - Calm Calm 0.6 mph1.0 kmh 29.56 in1001.0 mb 0.00 in0.0 mm 0.00 in0.0 mm 0.02 in0.5 mm
09:48 AM 38.3°F3.5°C -169.0°F-111.7°C - Calm Calm -- 29.57 in1001.4 mb 0.00 in0.0 mm 0.00 in0.0 mm 0.02 in0.5 mm
10:03 AM 38.3°F3.5°C -169.0°F-111.7°C - Calm Calm -- 29.57 in1001.4 mb 0.00 in0.0 mm 0.00 in0.0 mm 0.02 in0.5 mm
10:19 AM 38.1°F3.4°C -169.0°F-111.7°C - Calm Calm -- 29.58 in1001.7 mb 0.00 in0.0 mm 0.00 in0.0 mm 0.02 in0.5 mm
10:34 AM 38.3°F3.5°C -169.0°F-111.7°C - Calm Calm -- 29.59 in1002.0 mb 0.00 in0.0 mm 0.00 in0.0 mm 0.02 in0.5 mm
10:49 AM 38.7°F3.7°C -168.9°F-111.6°C - Calm Calm -- 29.60 in1002.4 mb 0.00 in0.0 mm 0.00 in0.0 mm 0.02 in0.5 mm
11:04 AM 38.3°F3.5°C -169.0°F-111.7°C - Calm Calm -- 29.61 in1002.7 mb 0.00 in0.0 mm 0.00 in0.0 mm 0.02 in0.5 mm
11:19 AM 38.1°F3.4°C -169.0°F-111.7°C - Calm Calm -- 29.61 in1002.7 mb 0.00 in0.0 mm 0.00 in0.0 mm 0.02 in0.5 mm
11:34 AM 38.3°F3.5°C -169.0°F-111.7°C - Calm Calm -- 29.61 in1002.7 mb 0.00 in0.0 mm 0.00 in0.0 mm 0.02 in0.5 mm
11:49 AM 38.5°F3.6°C -169.0°F-111.7°C - Calm Calm -- 29.61 in1002.7 mb 0.00 in0.0 mm 0.00 in0.0 mm 0.02 in0.5 mm
12:04 PM 38.8°F3.8°C -168.9°F-111.6°C - Calm Calm -- 29.61 in1002.7 mb 0.00 in0.0 mm 0.00 in0.0 mm 0.02 in0.5 mm
12:19 PM 38.7°F3.7°C -168.9°F-111.6°C - Calm Calm -- 29.62 in1003.0 mb 0.00 in0.0 mm 0.00 in0.0 mm 0.02 in0.5 mm
12:34 PM 38.3°F3.5°C -169.0°F-111.7°C - Calm Calm -- 29.62 in1003.0 mb 0.00 in0.0 mm 0.00 in0.0 mm 0.02 in0.5 mm
12:49 PM 37.8°F3.2°C -169.0°F-111.7°C - Calm Calm -- 29.63 in1003.4 mb 0.00 in0.0 mm 0.00 in0.0 mm 0.02 in0.5 mm
01:04 PM 37.8°F3.2°C -169.0°F-111.7°C - Calm Calm -- 29.64 in1003.7 mb 0.00 in0.0 mm 0.00 in0.0 mm 0.02 in0.5 mm
01:19 PM 38.3°F3.5°C -169.0°F-111.7°C - Calm Calm -- 29.64 in1003.7 mb 0.00 in0.0 mm 0.00 in0.0 mm 0.02 in0.5 mm
01:34 PM 38.3°F3.5°C -169.0°F-111.7°C - Calm Calm -- 29.65 in1004.1 mb 0.00 in0.0 mm 0.00 in0.0 mm 0.02 in0.5 mm
01:49 PM 38.3°F3.5°C -169.0°F-111.7°C - Calm Calm -- 29.65 in1004.1 mb 0.00 in0.0 mm 0.00 in0.0 mm 0.02 in0.5 mm
02:04 PM 38.3°F3.5°C -169.0°F-111.7°C - Calm Calm -- 29.65 in1004.1 mb 0.00 in0.0 mm 0.00 in0.0 mm 0.02 in0.5 mm
02:19 PM 38.1°F3.4°C -169.0°F-111.7°C - Calm Calm -- 29.66 in1004.4 mb 0.00 in0.0 mm 0.00 in0.0 mm 0.02 in0.5 mm
02:34 PM 38.3°F3.5°C -169.0°F-111.7°C - Calm Calm -- 29.67 in1004.7 mb 0.00 in0.0 mm 0.00 in0.0 mm 0.02 in0.5 mm
02:49 PM 38.7°F3.7°C -168.9°F-111.6°C - Calm Calm -- 29.67 in1004.7 mb 0.00 in0.0 mm 0.00 in0.0 mm 0.02 in0.5 mm
03:04 PM 38.7°F3.7°C -168.9°F-111.6°C - Calm Calm -- 29.68 in1005.1 mb 0.00 in0.0 mm 0.00 in0.0 mm 0.02 in0.5 mm
03:19 PM 39.0°F3.9°C -168.9°F-111.6°C - Calm Calm -- 29.69 in1005.4 mb 0.00 in0.0 mm 0.00 in0.0 mm 0.02 in0.5 mm
03:34 PM 39.0°F3.9°C -168.9°F-111.6°C - Calm Calm -- 29.70 in1005.8 mb 0.00 in0.0 mm 0.00 in0.0 mm 0.02 in0.5 mm
03:49 PM 38.7°F3.7°C -168.9°F-111.6°C - Calm Calm -- 29.70 in1005.8 mb 0.00 in0.0 mm 0.00 in0.0 mm 0.02 in0.5 mm
04:04 PM 38.5°F3.6°C -169.0°F-111.7°C - Calm Calm -- 29.71 in1006.1 mb 0.00 in0.0 mm 0.00 in0.0 mm 0.02 in0.5 mm
04:19 PM 38.1°F3.4°C -169.0°F-111.7°C - Calm Calm -- 29.73 in1006.8 mb 0.00 in0.0 mm 0.00 in0.0 mm 0.02 in0.5 mm
04:34 PM 37.8°F3.2°C -169.0°F-111.7°C - Calm Calm -- 29.73 in1006.8 mb 0.00 in0.0 mm 0.00 in0.0 mm 0.02 in0.5 mm
04:49 PM 37.6°F3.1°C -169.0°F-111.7°C - Calm Calm -- 29.74 in1007.1 mb 0.00 in0.0 mm 0.00 in0.0 mm 0.02 in0.5 mm
05:04 PM 37.4°F3.0°C -169.1°F-111.7°C - Calm Calm -- 29.75 in1007.5 mb 0.00 in0.0 mm 0.00 in0.0 mm 0.02 in0.5 mm
05:19 PM 37.0°F2.8°C -169.1°F-111.7°C - Calm Calm -- 29.76 in1007.8 mb 0.00 in0.0 mm 0.00 in0.0 mm 0.02 in0.5 mm
05:34 PM 37.0°F2.8°C -169.1°F-111.7°C - Calm Calm -- 29.77 in1008.1 mb 0.00 in0.0 mm 0.00 in0.0 mm 0.02 in0.5 mm
05:49 PM 36.5°F2.5°C -169.2°F-111.8°C - Calm Calm -- 29.78 in1008.5 mb 0.00 in0.0 mm 0.00 in0.0 mm 0.02 in0.5 mm
06:04 PM 36.3°F2.4°C -169.2°F-111.8°C - Calm Calm -- 29.79 in1008.8 mb 0.00 in0.0 mm 0.00 in0.0 mm 0.02 in0.5 mm
06:19 PM 35.6°F2.0°C -169.2°F-111.8°C - Calm Calm -- 29.79 in1008.8 mb 0.00 in0.0 mm 0.00 in0.0 mm 0.02 in0.5 mm
06:34 PM 35.1°F1.7°C -169.3°F-111.8°C - Calm Calm -- 29.80 in1009.1 mb 0.00 in0.0 mm 0.00 in0.0 mm 0.02 in0.5 mm
06:49 PM 34.9°F1.6°C -169.3°F-111.8°C - Calm Calm -- 29.81 in1009.5 mb 0.00 in0.0 mm 0.00 in0.0 mm 0.02 in0.5 mm
07:04 PM 34.7°F1.5°C -169.3°F-111.8°C - Calm Calm -- 29.82 in1009.8 mb 0.00 in0.0 mm 0.00 in0.0 mm 0.02 in0.5 mm
07:19 PM 34.2°F1.2°C -169.4°F-111.9°C - Calm Calm -- 29.82 in1009.8 mb 0.00 in0.0 mm 0.00 in0.0 mm 0.02 in0.5 mm
07:34 PM 34.2°F1.2°C -169.4°F-111.9°C - Calm Calm -- 29.83 in1010.2 mb 0.00 in0.0 mm 0.00 in0.0 mm 0.02 in0.5 mm
07:49 PM 33.6°F0.9°C -169.4°F-111.9°C - Calm Calm -- 29.83 in1010.2 mb 0.00 in0.0 mm 0.00 in0.0 mm 0.02 in0.5 mm
08:04 PM 33.4°F0.8°C -169.5°F-111.9°C - Calm Calm -- 29.83 in1010.2 mb 0.00 in0.0 mm 0.00 in0.0 mm 0.02 in0.5 mm
08:19 PM 33.3°F0.7°C -169.5°F-111.9°C - Calm Calm -- 29.83 in1010.2 mb 0.00 in0.0 mm 0.00 in0.0 mm 0.02 in0.5 mm
08:34 PM 32.9°F0.5°C -169.5°F-111.9°C - Calm Calm -- 29.84 in1010.5 mb 0.00 in0.0 mm 0.00 in0.0 mm 0.02 in0.5 mm
08:49 PM 32.7°F0.4°C -169.5°F-111.9°C - Calm Calm -- 29.85 in1010.8 mb 0.00 in0.0 mm 0.00 in0.0 mm 0.02 in0.5 mm
09:04 PM 32.9°F0.5°C -169.5°F-111.9°C - Calm Calm -- 29.85 in1010.8 mb 0.00 in0.0 mm 0.00 in0.0 mm 0.02 in0.5 mm
09:19 PM 32.4°F0.2°C -169.6°F-112.0°C - Calm Calm -- 29.86 in1011.2 mb 0.00 in0.0 mm 0.00 in0.0 mm 0.02 in0.5 mm
09:34 PM 32.4°F0.2°C -169.6°F-112.0°C - Calm Calm -- 29.86 in1011.2 mb 0.00 in0.0 mm 0.00 in0.0 mm 0.02 in0.5 mm
09:49 PM 32.0°F0.0°C -169.6°F-112.0°C - Calm Calm -- 29.86 in1011.2 mb 0.00 in0.0 mm 0.00 in0.0 mm 0.02 in0.5 mm
10:04 PM 32.2°F0.1°C -169.6°F-112.0°C - Calm Calm -- 29.86 in1011.2 mb 0.00 in0.0 mm 0.00 in0.0 mm 0.02 in0.5 mm
10:17 PM 32.2°F0.1°C -169.6°F-112.0°C - Calm Calm -- 29.86 in1011.2 mb 0.00 in0.0 mm 0.00 in0.0 mm 0.02 in0.5 mm
10:34 PM 31.8°F-0.1°C -169.6°F-112.0°C - Calm Calm -- 29.87 in1011.5 mb 0.00 in0.0 mm 0.00 in0.0 mm 0.02 in0.5 mm
10:46 PM 31.8°F-0.1°C -169.6°F-112.0°C - Calm Calm -- 29.87 in1011.5 mb 0.00 in0.0 mm 0.00 in0.0 mm 0.02 in0.5 mm
11:04 PM 31.8°F-0.1°C -169.6°F-112.0°C - Calm Calm -- 29.87 in1011.5 mb 0.00 in0.0 mm 0.00 in0.0 mm 0.02 in0.5 mm
11:17 PM 31.8°F-0.1°C -169.6°F-112.0°C - Calm Calm -- 29.87 in1011.5 mb 0.00 in0.0 mm 0.00 in0.0 mm 0.02 in0.5 mm
11:34 PM 31.6°F-0.2°C -169.6°F-112.0°C - Calm Calm -- 29.88 in1011.9 mb 0.00 in0.0 mm 0.00 in0.0 mm 0.02 in0.5 mm
11:45 PM 31.6°F-0.2°C -169.6°F-112.0°C - Calm Calm -- 29.88 in1011.9 mb 0.00 in0.0 mm 0.00 in0.0 mm 0.02 in0.5 mm